Cook, NE (68329)

5:22 PM CST on December 09, 2016 (GMT -0600)
Tecumseh | | Change Station

Elev 1240 ft 40.38 °N, 96.17 °W | Updated 27 seconds ago

Overcast
Overcast
22.1 °F
Feels Like 17 °F
N
4.0
Wind Variable Wind from ESE

Today
High -- | Low -- °F
--% Chance of Precip.
Yesterday
High -- | Low -- °F
Precip. -- in
Pressure 30.50 in
Visibility 10.0 miles
Clouds Overcast 4800 ft
Windchill 17 °F
Dew Point 14 °F
Humidity 71%
Rainfall 0.00 in
Snow Depth Not available.
7:36 AM 4:57 PM
Waxing Gibbous, 78% visible
METAR KAFK 092315Z AUTO 12004KT 10SM OVC048 M06/M12 A3050 RMK AO2 T10561123
Pressure 30.50 in
Visibility 10.0 miles
Clouds Overcast 4800 ft
Windchill 17 °F
Dew Point 14 °F
Humidity 71%
Rainfall 0.00 in
Snow Depth Not available.
7:36 AM 4:57 PM
Waxing Gibbous, 78% visible
METAR KAFK 092315Z AUTO 12004KT 10SM OVC048 M06/M12 A3050 RMK AO2 T10561123

10-Day Weather Forecast

Almanac

Astronomy

Dec. 09, 2016 Rise Set
Actual Time
Civil Twilight
Nautical Twilight
Astronomical Twilight
Moon
Length of Visible Light
Length of Day
Tomorrow will be .
, % of the Moon is Illuminated

Today's Extremes

State Highs State Lows

Community

WunderPhotos

Upload Photos

1,956,535 photos uploaded!

WunderBlog® & News

Nearby

Air Quality

  Air Quality AQ Index Pollutant
Not available.

Snow Depth

Station Depth Elevation

Earthquake Activity

City Distance Mag. Time & Date
Minimum magnitude displayed is 2.5.

Coastal Water Temperatures

Place Temperature

Stations

Nearby Weather Stations

Station Location Temp. Windchill Dew Point Humidity Wind Precip. Elev Updated Type
                   

Watches & Warnings

There are currently no watches in effect.